DAL8635 KSFO-KLAX
Flight info
| Callsign | DAL8635 |
|---|---|
| Flight time | 0h 48m |
| Altitude | 33000 |
| Route | WESLA5 SUSEY EBAYE BURGL IRNMN2 |
| Aircraft | A321/M-SDE3FGHIRWY/LB1 |
Departure
| Time | 2026-04-22 07:52 |
|---|---|
| Airport | San Francisco International Airport (KSFO) |
Arrival
| Time | 2026-04-22 08:40 |
|---|---|
| Airport | Los Angeles International Airport (KLAX) |
| Time | Latitude | Longitude | Altitude | Speed | Heading |
|---|---|---|---|---|---|
| 2026-04-22 07:24 | 37.61425 | -122.38231 | 21 ft | 0 kts | 349° |
| 2026-04-22 07:43 | 37.61412 | -122.38229 | 22 ft | 4 kts | 349° |
| 2026-04-22 07:44 | 37.61391 | -122.38226 | 21 ft | 3 kts | 360° |
| 2026-04-22 07:44 | 37.61367 | -122.38230 | 22 ft | 4 kts | 14° |
| 2026-04-22 07:44 | 37.61350 | -122.38232 | 22 ft | 4 kts | 347° |
| 2026-04-22 07:44 | 37.61326 | -122.38218 | 22 ft | 4 kts | 318° |
| 2026-04-22 07:45 | 37.61308 | -122.38201 | 22 ft | 4 kts | 9° |
| 2026-04-22 07:45 | 37.61305 | -122.38201 | 23 ft | 0 kts | 27° |
| 2026-04-22 07:47 | 37.61350 | -122.38171 | 21 ft | 18 kts | 27° |
| 2026-04-22 07:48 | 37.61417 | -122.38041 | 20 ft | 17 kts | 53° |
| 2026-04-22 07:48 | 37.61514 | -122.37968 | 20 ft | 15 kts | 28° |
| 2026-04-22 07:48 | 37.61619 | -122.37904 | 21 ft | 19 kts | 24° |
| 2026-04-22 07:48 | 37.61739 | -122.37859 | 21 ft | 18 kts | 8° |
| 2026-04-22 07:49 | 37.61795 | -122.37763 | 21 ft | 14 kts | 104° |
| 2026-04-22 07:49 | 37.61752 | -122.37626 | 21 ft | 26 kts | 112° |
| 2026-04-22 07:49 | 37.61648 | -122.37339 | 22 ft | 39 kts | 118° |
| 2026-04-22 07:49 | 37.61518 | -122.37041 | 22 ft | 38 kts | 118° |
| 2026-04-22 07:50 | 37.61383 | -122.36783 | 22 ft | 32 kts | 140° |
| 2026-04-22 07:50 | 37.61269 | -122.36548 | 21 ft | 31 kts | 117° |
| 2026-04-22 07:50 | 37.61166 | -122.36313 | 21 ft | 30 kts | 119° |
| 2026-04-22 07:50 | 37.61071 | -122.36080 | 21 ft | 29 kts | 118° |
| 2026-04-22 07:51 | 37.61113 | -122.35894 | 21 ft | 21 kts | 36° |
| 2026-04-22 07:51 | 37.61191 | -122.35869 | 22 ft | 5 kts | 288° |
| 2026-04-22 07:51 | 37.61220 | -122.35953 | 21 ft | 22 kts | 303° |
| 2026-04-22 07:51 | 37.61402 | -122.36388 | 21 ft | 90 kts | 297° |
| 2026-04-22 07:52 | 37.61784 | -122.37298 | 22 ft | 142 kts | 298° |
| 2026-04-22 07:52 | 37.62309 | -122.38515 | 148 ft | 169 kts | 297° |
| 2026-04-22 07:52 | 37.62865 | -122.39793 | 785 ft | 166 kts | 294° |
| 2026-04-22 07:52 | 37.63398 | -122.41090 | 1388 ft | 167 kts | 295° |
| 2026-04-22 07:53 | 37.63959 | -122.42388 | 1895 ft | 173 kts | 295° |
| 2026-04-22 07:53 | 37.64575 | -122.43805 | 2087 ft | 195 kts | 295° |
| 2026-04-22 07:53 | 37.65269 | -122.45394 | 2217 ft | 219 kts | 296° |
| 2026-04-22 07:53 | 37.66035 | -122.47135 | 2682 ft | 230 kts | 296° |
| 2026-04-22 07:54 | 37.66762 | -122.48918 | 3348 ft | 237 kts | 285° |
| 2026-04-22 07:54 | 37.66743 | -122.50998 | 3891 ft | 245 kts | 246° |
| 2026-04-22 07:54 | 37.65666 | -122.52645 | 4653 ft | 250 kts | 211° |
| 2026-04-22 07:54 | 37.63970 | -122.53157 | 5451 ft | 260 kts | 178° |
| 2026-04-22 07:55 | 37.62183 | -122.52669 | 6273 ft | 267 kts | 165° |
| 2026-04-22 07:55 | 37.60426 | -122.51843 | 7063 ft | 272 kts | 162° |
| 2026-04-22 07:55 | 37.58646 | -122.50966 | 7777 ft | 277 kts | 163° |
| 2026-04-22 07:55 | 37.56817 | -122.50146 | 8484 ft | 281 kts | 166° |
| 2026-04-22 07:56 | 37.54936 | -122.49404 | 9260 ft | 285 kts | 168° |
| 2026-04-22 07:56 | 37.53012 | -122.48727 | 10040 ft | 289 kts | 170° |
| 2026-04-22 07:56 | 37.51026 | -122.48057 | 10408 ft | 308 kts | 166° |
| 2026-04-22 07:56 | 37.48988 | -122.46894 | 10566 ft | 337 kts | 152° |
| 2026-04-22 07:57 | 37.47122 | -122.44967 | 10904 ft | 357 kts | 136° |
| 2026-04-22 07:57 | 37.45429 | -122.42637 | 11525 ft | 363 kts | 135° |
| 2026-04-22 07:57 | 37.43710 | -122.40283 | 12184 ft | 368 kts | 136° |
| 2026-04-22 07:57 | 37.41956 | -122.37891 | 12780 ft | 375 kts | 136° |
| 2026-04-22 07:58 | 37.40165 | -122.35460 | 13375 ft | 382 kts | 136° |
| 2026-04-22 07:58 | 37.38351 | -122.33000 | 14067 ft | 386 kts | 136° |
| 2026-04-22 07:58 | 37.36516 | -122.30514 | 14693 ft | 390 kts | 136° |
| 2026-04-22 07:58 | 37.34661 | -122.28005 | 15227 ft | 395 kts | 137° |
| 2026-04-22 07:59 | 37.32773 | -122.25448 | 15748 ft | 402 kts | 137° |
| 2026-04-22 07:59 | 37.30888 | -122.22897 | 16310 ft | 407 kts | 137° |
| 2026-04-22 07:59 | 37.28950 | -122.20275 | 16830 ft | 413 kts | 138° |
| 2026-04-22 07:59 | 37.26984 | -122.17618 | 17338 ft | 418 kts | 138° |
| 2026-04-22 08:00 | 37.24988 | -122.14923 | 17870 ft | 424 kts | 139° |
| 2026-04-22 08:00 | 37.22973 | -122.12200 | 18387 ft | 429 kts | 139° |
| 2026-04-22 08:00 | 37.20934 | -122.09446 | 18864 ft | 433 kts | 139° |
| 2026-04-22 08:00 | 37.18870 | -122.06665 | 19340 ft | 438 kts | 139° |
| 2026-04-22 08:01 | 37.16781 | -122.03854 | 19737 ft | 444 kts | 139° |
| 2026-04-22 08:01 | 37.14663 | -122.01008 | 20178 ft | 448 kts | 139° |
| 2026-04-22 08:01 | 37.12528 | -121.98137 | 20622 ft | 452 kts | 140° |
| 2026-04-22 08:01 | 37.10380 | -121.95246 | 21054 ft | 456 kts | 140° |
| 2026-04-22 08:02 | 37.08207 | -121.92326 | 21487 ft | 460 kts | 140° |
| 2026-04-22 08:02 | 37.06012 | -121.89384 | 21910 ft | 464 kts | 140° |
| 2026-04-22 08:02 | 37.03794 | -121.86415 | 22333 ft | 468 kts | 140° |
| 2026-04-22 08:02 | 37.01561 | -121.83431 | 22743 ft | 472 kts | 140° |
| 2026-04-22 08:03 | 36.99305 | -121.80418 | 23085 ft | 476 kts | 140° |
| 2026-04-22 08:03 | 36.97040 | -121.77389 | 23537 ft | 479 kts | 140° |
| 2026-04-22 08:03 | 36.94754 | -121.74337 | 23911 ft | 482 kts | 141° |
| 2026-04-22 08:03 | 36.92455 | -121.71275 | 24236 ft | 485 kts | 141° |
| 2026-04-22 08:04 | 36.90139 | -121.68193 | 24567 ft | 488 kts | 141° |
| 2026-04-22 08:04 | 36.87806 | -121.65087 | 24902 ft | 492 kts | 141° |
| 2026-04-22 08:04 | 36.85455 | -121.61959 | 25240 ft | 495 kts | 141° |
| 2026-04-22 08:04 | 36.83096 | -121.58820 | 25537 ft | 498 kts | 141° |
| 2026-04-22 08:05 | 36.80717 | -121.55661 | 25876 ft | 500 kts | 141° |
| 2026-04-22 08:05 | 36.78322 | -121.52489 | 26186 ft | 503 kts | 141° |
| 2026-04-22 08:05 | 36.75913 | -121.49307 | 26537 ft | 506 kts | 141° |
| 2026-04-22 08:05 | 36.73518 | -121.46143 | 26845 ft | 510 kts | 141° |
| 2026-04-22 08:06 | 36.71051 | -121.42881 | 27166 ft | 513 kts | 141° |
| 2026-04-22 08:06 | 36.68628 | -121.39679 | 27436 ft | 516 kts | 141° |
| 2026-04-22 08:06 | 36.66159 | -121.36419 | 27732 ft | 518 kts | 141° |
| 2026-04-22 08:06 | 36.63682 | -121.33151 | 28060 ft | 521 kts | 141° |
| 2026-04-22 08:07 | 36.61185 | -121.29859 | 28355 ft | 524 kts | 141° |
| 2026-04-22 08:07 | 36.58676 | -121.26559 | 28641 ft | 527 kts | 141° |
| 2026-04-22 08:07 | 36.56148 | -121.23240 | 28953 ft | 529 kts | 142° |
| 2026-04-22 08:07 | 36.53610 | -121.19913 | 29107 ft | 532 kts | 141° |
| 2026-04-22 08:08 | 36.51053 | -121.16563 | 29410 ft | 534 kts | 141° |
| 2026-04-22 08:08 | 36.48494 | -121.13214 | 29698 ft | 536 kts | 141° |
| 2026-04-22 08:08 | 36.45917 | -121.09848 | 29982 ft | 539 kts | 141° |
| 2026-04-22 08:08 | 36.43330 | -121.06471 | 30246 ft | 541 kts | 141° |
| 2026-04-22 08:09 | 36.40765 | -121.03027 | 30482 ft | 545 kts | 139° |
| 2026-04-22 08:09 | 36.38257 | -120.99486 | 30808 ft | 546 kts | 138° |
| 2026-04-22 08:09 | 36.35797 | -120.95884 | 31178 ft | 546 kts | 137° |
| 2026-04-22 08:09 | 36.33371 | -120.92271 | 31555 ft | 546 kts | 137° |
| 2026-04-22 08:10 | 36.30935 | -120.88659 | 31936 ft | 544 kts | 137° |
| 2026-04-22 08:10 | 36.28493 | -120.85086 | 32323 ft | 543 kts | 138° |
| 2026-04-22 08:10 | 36.26034 | -120.81537 | 32702 ft | 541 kts | 139° |
| 2026-04-22 08:10 | 36.23570 | -120.78024 | 33035 ft | 540 kts | 139° |
| 2026-04-22 08:11 | 36.21099 | -120.74521 | 33195 ft | 539 kts | 139° |
| 2026-04-22 08:11 | 36.18653 | -120.71051 | 33216 ft | 531 kts | 139° |
| 2026-04-22 08:11 | 36.13830 | -120.64196 | 33213 ft | 527 kts | 139° |
| 2026-04-22 08:12 | 36.09013 | -120.57366 | 33150 ft | 526 kts | 139° |
| 2026-04-22 08:12 | 36.04218 | -120.50570 | 33206 ft | 524 kts | 139° |
| 2026-04-22 08:13 | 35.99463 | -120.43824 | 33211 ft | 523 kts | 139° |
| 2026-04-22 08:13 | 35.94681 | -120.37046 | 33225 ft | 523 kts | 139° |
| 2026-04-22 08:14 | 35.89887 | -120.30304 | 33182 ft | 522 kts | 139° |
| 2026-04-22 08:14 | 35.84625 | -120.24389 | 33193 ft | 501 kts | 156° |
| 2026-04-22 08:15 | 35.78752 | -120.19918 | 33194 ft | 496 kts | 159° |
| 2026-04-22 08:15 | 35.72863 | -120.15497 | 33201 ft | 497 kts | 159° |
| 2026-04-22 08:16 | 35.66954 | -120.11048 | 33231 ft | 498 kts | 159° |
| 2026-04-22 08:16 | 35.61062 | -120.06599 | 33229 ft | 497 kts | 159° |
| 2026-04-22 08:17 | 35.55178 | -120.02153 | 33173 ft | 496 kts | 159° |
| 2026-04-22 08:17 | 35.49299 | -119.97727 | 33186 ft | 495 kts | 159° |
| 2026-04-22 08:18 | 35.43424 | -119.93323 | 33183 ft | 495 kts | 159° |
| 2026-04-22 08:18 | 35.37553 | -119.88919 | 33172 ft | 495 kts | 159° |
| 2026-04-22 08:19 | 35.31677 | -119.84513 | 33184 ft | 495 kts | 159° |
| 2026-04-22 08:19 | 35.25988 | -119.79727 | 33217 ft | 504 kts | 152° |
| 2026-04-22 08:20 | 35.23153 | -119.77081 | 33009 ft | 509 kts | 152° |
| 2026-04-22 08:20 | 35.20341 | -119.74447 | 32693 ft | 508 kts | 152° |
| 2026-04-22 08:20 | 35.17542 | -119.71823 | 32434 ft | 506 kts | 152° |
| 2026-04-22 08:20 | 35.14790 | -119.69246 | 32180 ft | 504 kts | 152° |
| 2026-04-22 08:21 | 35.12012 | -119.66646 | 31928 ft | 502 kts | 152° |
| 2026-04-22 08:21 | 35.09207 | -119.64038 | 31677 ft | 500 kts | 152° |
| 2026-04-22 08:21 | 35.06447 | -119.61470 | 31431 ft | 498 kts | 152° |
| 2026-04-22 08:21 | 35.03727 | -119.58944 | 31139 ft | 496 kts | 152° |
| 2026-04-22 08:22 | 35.00987 | -119.56410 | 30900 ft | 493 kts | 152° |
| 2026-04-22 08:22 | 34.98259 | -119.53883 | 30656 ft | 491 kts | 152° |
| 2026-04-22 08:22 | 34.95549 | -119.51362 | 30083 ft | 491 kts | 152° |
| 2026-04-22 08:22 | 34.92836 | -119.48846 | 29455 ft | 489 kts | 152° |
| 2026-04-22 08:23 | 34.90135 | -119.46344 | 28849 ft | 486 kts | 152° |
| 2026-04-22 08:23 | 34.87437 | -119.43889 | 28249 ft | 483 kts | 152° |
| 2026-04-22 08:23 | 34.84741 | -119.41476 | 27628 ft | 479 kts | 152° |
| 2026-04-22 08:23 | 34.82056 | -119.39096 | 27063 ft | 476 kts | 153° |
| 2026-04-22 08:24 | 34.79385 | -119.36736 | 26471 ft | 474 kts | 152° |
| 2026-04-22 08:24 | 34.76725 | -119.34383 | 25884 ft | 472 kts | 152° |
| 2026-04-22 08:24 | 34.74075 | -119.32036 | 25337 ft | 469 kts | 152° |
| 2026-04-22 08:24 | 34.71468 | -119.29733 | 25190 ft | 456 kts | 153° |
| 2026-04-22 08:25 | 34.68931 | -119.27502 | 24887 ft | 447 kts | 153° |
| 2026-04-22 08:25 | 34.66425 | -119.25312 | 24465 ft | 442 kts | 153° |
| 2026-04-22 08:25 | 34.63937 | -119.23150 | 24041 ft | 437 kts | 154° |
| 2026-04-22 08:25 | 34.61466 | -119.21019 | 23591 ft | 433 kts | 154° |
| 2026-04-22 08:26 | 34.59016 | -119.18918 | 23092 ft | 429 kts | 154° |
| 2026-04-22 08:26 | 34.56593 | -119.16839 | 22581 ft | 423 kts | 154° |
| 2026-04-22 08:26 | 34.54229 | -119.14793 | 21629 ft | 415 kts | 153° |
| 2026-04-22 08:26 | 34.51913 | -119.12756 | 20703 ft | 409 kts | 153° |
| 2026-04-22 08:27 | 34.49646 | -119.10746 | 20228 ft | 406 kts | 152° |
| 2026-04-22 08:27 | 34.47384 | -119.08732 | 19882 ft | 401 kts | 152° |
| 2026-04-22 08:27 | 34.45146 | -119.06738 | 19477 ft | 396 kts | 152° |
| 2026-04-22 08:27 | 34.42941 | -119.04779 | 18863 ft | 390 kts | 152° |
| 2026-04-22 08:28 | 34.40761 | -119.02870 | 18224 ft | 385 kts | 152° |
| 2026-04-22 08:28 | 34.38621 | -119.01014 | 17921 ft | 368 kts | 152° |
| 2026-04-22 08:28 | 34.36602 | -118.99259 | 17542 ft | 349 kts | 153° |
| 2026-04-22 08:28 | 34.34656 | -118.97578 | 16840 ft | 341 kts | 153° |
| 2026-04-22 08:29 | 34.32743 | -118.95915 | 16127 ft | 337 kts | 152° |
| 2026-04-22 08:29 | 34.30868 | -118.94240 | 15501 ft | 334 kts | 150° |
| 2026-04-22 08:29 | 34.29006 | -118.92556 | 15097 ft | 335 kts | 150° |
| 2026-04-22 08:29 | 34.27140 | -118.90858 | 14680 ft | 336 kts | 150° |
| 2026-04-22 08:30 | 34.25276 | -118.89155 | 14314 ft | 334 kts | 149° |
| 2026-04-22 08:30 | 34.23436 | -118.87460 | 13899 ft | 335 kts | 149° |
| 2026-04-22 08:30 | 34.21591 | -118.85761 | 13614 ft | 330 kts | 149° |
| 2026-04-22 08:30 | 34.19783 | -118.84097 | 13334 ft | 324 kts | 149° |
| 2026-04-22 08:31 | 34.18005 | -118.82462 | 12799 ft | 318 kts | 149° |
| 2026-04-22 08:31 | 34.16247 | -118.80865 | 12041 ft | 313 kts | 153° |
| 2026-04-22 08:31 | 34.12341 | -118.79781 | 10702 ft | 278 kts | 188° |
| 2026-04-22 08:32 | 34.10464 | -118.79870 | 10297 ft | 264 kts | 189° |
| 2026-04-22 08:32 | 34.08675 | -118.79978 | 9934 ft | 248 kts | 189° |
| 2026-04-22 08:32 | 34.06989 | -118.80078 | 9461 ft | 239 kts | 189° |
| 2026-04-22 08:32 | 34.05340 | -118.80180 | 8879 ft | 236 kts | 188° |
| 2026-04-22 08:33 | 34.03710 | -118.79861 | 8279 ft | 244 kts | 159° |
| 2026-04-22 08:33 | 34.02770 | -118.79106 | 7896 ft | 248 kts | 143° |
| 2026-04-22 08:33 | 34.01496 | -118.77706 | 7279 ft | 248 kts | 140° |
| 2026-04-22 08:33 | 33.99815 | -118.75822 | 6540 ft | 245 kts | 140° |
| 2026-04-22 08:34 | 33.98987 | -118.74904 | 6166 ft | 243 kts | 140° |
| 2026-04-22 08:34 | 33.97773 | -118.73517 | 5674 ft | 236 kts | 137° |
| 2026-04-22 08:34 | 33.96665 | -118.72134 | 5220 ft | 225 kts | 135° |
| 2026-04-22 08:34 | 33.95630 | -118.70740 | 4563 ft | 222 kts | 133° |
| 2026-04-22 08:35 | 33.94650 | -118.69316 | 3916 ft | 222 kts | 129° |
| 2026-04-22 08:35 | 33.93724 | -118.67836 | 3451 ft | 220 kts | 128° |
| 2026-04-22 08:35 | 33.92887 | -118.66309 | 2956 ft | 219 kts | 116° |
| 2026-04-22 08:35 | 33.92540 | -118.64535 | 2474 ft | 218 kts | 91° |
| 2026-04-22 08:36 | 33.92680 | -118.62743 | 2146 ft | 207 kts | 81° |
| 2026-04-22 08:36 | 33.92850 | -118.61136 | 2031 ft | 181 kts | 82° |
| 2026-04-22 08:36 | 33.93002 | -118.59684 | 1877 ft | 172 kts | 82° |
| 2026-04-22 08:36 | 33.93148 | -118.58285 | 1811 ft | 163 kts | 81° |
| 2026-04-22 08:37 | 33.93288 | -118.56947 | 1807 ft | 160 kts | 81° |
| 2026-04-22 08:37 | 33.93423 | -118.55643 | 1807 ft | 158 kts | 81° |
| 2026-04-22 08:37 | 33.93559 | -118.54334 | 1804 ft | 158 kts | 81° |
| 2026-04-22 08:37 | 33.93695 | -118.53026 | 1693 ft | 157 kts | 81° |
| 2026-04-22 08:38 | 33.93830 | -118.51723 | 1516 ft | 156 kts | 81° |
| 2026-04-22 08:38 | 33.93964 | -118.50427 | 1322 ft | 156 kts | 82° |
| 2026-04-22 08:38 | 33.94102 | -118.49138 | 1134 ft | 155 kts | 81° |
| 2026-04-22 08:38 | 33.94240 | -118.47847 | 936 ft | 156 kts | 81° |
| 2026-04-22 08:39 | 33.94364 | -118.46562 | 732 ft | 153 kts | 82° |
| 2026-04-22 08:39 | 33.94480 | -118.45304 | 507 ft | 151 kts | 82° |
| 2026-04-22 08:39 | 33.94619 | -118.44062 | 241 ft | 148 kts | 80° |
| 2026-04-22 08:39 | 33.94750 | -118.42843 | 107 ft | 142 kts | 83° |
| 2026-04-22 08:40 | 33.94854 | -118.41795 | 96 ft | 103 kts | 82° |
| 2026-04-22 08:40 | 33.94916 | -118.41155 | 101 ft | 52 kts | 84° |
| 2026-04-22 08:40 | 33.94949 | -118.40866 | 101 ft | 29 kts | 82° |
| 2026-04-22 08:40 | 33.94956 | -118.40669 | 98 ft | 16 kts | 121° |
| 2026-04-22 08:41 | 33.94891 | -118.40632 | 95 ft | 0 kts | 161° |
| 2026-04-22 08:42 | 33.94874 | -118.40617 | 94 ft | 8 kts | 127° |
| 2026-04-22 08:42 | 33.94837 | -118.40593 | 94 ft | 6 kts | 182° |
| 2026-04-22 08:42 | 33.94796 | -118.40610 | 93 ft | 6 kts | 210° |
| 2026-04-22 08:43 | 33.94766 | -118.40630 | 94 ft | 4 kts | 170° |
| 2026-04-22 08:43 | 33.94745 | -118.40611 | 95 ft | 4 kts | 143° |
| 2026-04-22 08:43 | 33.94708 | -118.40593 | 95 ft | 11 kts | 167° |
| 2026-04-22 08:43 | 33.94647 | -118.40603 | 93 ft | 7 kts | 249° |
| 2026-04-22 08:44 | 33.94641 | -118.40646 | 93 ft | 3 kts | 264° |
| 2026-04-22 08:44 | 33.94641 | -118.40647 | 93 ft | 0 kts | 264° |